sensor_id;sensor_type;location;lat;lon;timestamp;P1;durP1;ratioP1;P2;durP2;ratioP2
39898;SDS011;25571;47.876;10.642;2023-04-09T00:00:35;14.25;;;12.57;;
39898;SDS011;25571;47.876;10.642;2023-04-09T00:03:01;15.57;;;13.60;;
39898;SDS011;25571;47.876;10.642;2023-04-09T00:05:27;14.77;;;13.27;;
39898;SDS011;25571;47.876;10.642;2023-04-09T00:07:53;14.32;;;12.40;;
39898;SDS011;25571;47.876;10.642;2023-04-09T00:10:18;13.95;;;12.27;;
39898;SDS011;25571;47.876;10.642;2023-04-09T00:12:44;15.18;;;12.85;;
39898;SDS011;25571;47.876;10.642;2023-04-09T00:15:10;15.68;;;13.27;;
39898;SDS011;25571;47.876;10.642;2023-04-09T00:17:35;15.68;;;13.85;;
39898;SDS011;25571;47.876;10.642;2023-04-09T00:20:01;16.92;;;13.55;;
39898;SDS011;25571;47.876;10.642;2023-04-09T00:22:28;17.50;;;14.68;;
39898;SDS011;25571;47.876;10.642;2023-04-09T00:24:54;18.83;;;15.45;;
39898;SDS011;25571;47.876;10.642;2023-04-09T00:27:19;17.13;;;13.68;;
39898;SDS011;25571;47.876;10.642;2023-04-09T00:29:45;14.38;;;12.77;;
39898;SDS011;25571;47.876;10.642;2023-04-09T00:32:11;15.35;;;13.35;;
39898;SDS011;25571;47.876;10.642;2023-04-09T00:34:37;15.70;;;13.18;;
39898;SDS011;25571;47.876;10.642;2023-04-09T00:37:03;16.20;;;12.93;;
39898;SDS011;25571;47.876;10.642;2023-04-09T00:39:29;15.27;;;12.82;;
39898;SDS011;25571;47.876;10.642;2023-04-09T00:41:55;15.05;;;12.48;;
39898;SDS011;25571;47.876;10.642;2023-04-09T00:44:22;14.50;;;12.70;;
39898;SDS011;25571;47.876;10.642;2023-04-09T00:46:48;16.38;;;14.18;;
39898;SDS011;25571;47.876;10.642;2023-04-09T00:49:14;14.52;;;12.20;;
39898;SDS011;25571;47.876;10.642;2023-04-09T00:51:40;15.25;;;13.15;;
39898;SDS011;25571;47.876;10.642;2023-04-09T00:54:06;15.07;;;12.75;;
39898;SDS011;25571;47.876;10.642;2023-04-09T00:56:31;14.85;;;11.45;;
39898;SDS011;25571;47.876;10.642;2023-04-09T00:58:58;12.90;;;11.45;;
39898;SDS011;25571;47.876;10.642;2023-04-09T01:01:24;14.65;;;12.00;;
39898;SDS011;25571;47.876;10.642;2023-04-09T01:03:50;15.48;;;11.90;;
39898;SDS011;25571;47.876;10.642;2023-04-09T01:14:09;15.60;;;11.88;;
39898;SDS011;25571;47.876;10.642;2023-04-09T01:16:36;14.95;;;11.77;;
39898;SDS011;25571;47.876;10.642;2023-04-09T01:19:09;14.90;;;13.10;;
39898;SDS011;25571;47.876;10.642;2023-04-09T01:21:45;14.07;;;12.00;;
39898;SDS011;25571;47.876;10.642;2023-04-09T01:24:19;15.10;;;11.73;;
39898;SDS011;25571;47.876;10.642;2023-04-09T01:27:11;13.73;;;10.75;;
39898;SDS011;25571;47.876;10.642;2023-04-09T01:29:40;12.98;;;10.90;;
39898;SDS011;25571;47.876;10.642;2023-04-09T01:32:11;12.60;;;10.73;;
39898;SDS011;25571;47.876;10.642;2023-04-09T01:37:06;12.05;;;9.93;;
39898;SDS011;25571;47.876;10.642;2023-04-09T01:39:33;11.43;;;10.18;;
39898;SDS011;25571;47.876;10.642;2023-04-09T01:41:59;11.20;;;9.25;;
39898;SDS011;25571;47.876;10.642;2023-04-09T01:44:26;11.52;;;9.52;;
39898;SDS011;25571;47.876;10.642;2023-04-09T01:46:52;12.13;;;10.07;;
39898;SDS011;25571;47.876;10.642;2023-04-09T01:49:19;11.25;;;9.98;;
39898;SDS011;25571;47.876;10.642;2023-04-09T01:51:46;12.40;;;10.55;;
39898;SDS011;25571;47.876;10.642;2023-04-09T01:54:12;10.90;;;9.38;;
39898;SDS011;25571;47.876;10.642;2023-04-09T01:56:41;10.63;;;9.50;;
39898;SDS011;25571;47.876;10.642;2023-04-09T01:59:08;13.30;;;10.40;;
39898;SDS011;25571;47.876;10.642;2023-04-09T02:01:38;11.90;;;9.80;;
39898;SDS011;25571;47.876;10.642;2023-04-09T02:04:10;12.13;;;10.30;;
39898;SDS011;25571;47.876;10.642;2023-04-09T02:09:19;11.75;;;9.85;;
39898;SDS011;25571;47.876;10.642;2023-04-09T02:11:46;11.10;;;9.88;;
39898;SDS011;25571;47.876;10.642;2023-04-09T02:14:14;12.80;;;9.82;;
39898;SDS011;25571;47.876;10.642;2023-04-09T02:16:40;10.88;;;9.07;;
39898;SDS011;25571;47.876;10.642;2023-04-09T02:19:07;11.35;;;10.15;;
39898;SDS011;25571;47.876;10.642;2023-04-09T02:21:32;11.20;;;9.25;;
39898;SDS011;25571;47.876;10.642;2023-04-09T02:23:58;9.90;;;8.55;;
39898;SDS011;25571;47.876;10.642;2023-04-09T02:26:23;10.63;;;9.30;;
39898;SDS011;25571;47.876;10.642;2023-04-09T02:28:49;11.65;;;9.70;;
39898;SDS011;25571;47.876;10.642;2023-04-09T02:31:15;10.90;;;9.77;;
39898;SDS011;25571;47.876;10.642;2023-04-09T02:33:41;11.27;;;9.27;;
39898;SDS011;25571;47.876;10.642;2023-04-09T02:36:09;12.57;;;9.77;;
39898;SDS011;25571;47.876;10.642;2023-04-09T02:38:36;12.88;;;10.00;;
39898;SDS011;25571;47.876;10.642;2023-04-09T02:41:04;12.63;;;10.40;;
39898;SDS011;25571;47.876;10.642;2023-04-09T02:43:30;11.02;;;9.20;;
39898;SDS011;25571;47.876;10.642;2023-04-09T02:45:55;11.77;;;9.60;;
39898;SDS011;25571;47.876;10.642;2023-04-09T02:48:21;11.32;;;9.80;;
39898;SDS011;25571;47.876;10.642;2023-04-09T02:50:46;12.43;;;10.48;;
39898;SDS011;25571;47.876;10.642;2023-04-09T02:53:12;13.20;;;10.10;;
39898;SDS011;25571;47.876;10.642;2023-04-09T02:55:37;12.77;;;10.77;;
39898;SDS011;25571;47.876;10.642;2023-04-09T02:58:03;15.05;;;11.32;;
39898;SDS011;25571;47.876;10.642;2023-04-09T03:00:28;12.32;;;10.43;;
39898;SDS011;25571;47.876;10.642;2023-04-09T03:02:54;15.52;;;11.35;;
39898;SDS011;25571;47.876;10.642;2023-04-09T03:05:20;13.35;;;11.00;;
39898;SDS011;25571;47.876;10.642;2023-04-09T03:07:45;13.63;;;10.98;;
39898;SDS011;25571;47.876;10.642;2023-04-09T03:10:11;13.80;;;10.88;;
39898;SDS011;25571;47.876;10.642;2023-04-09T03:12:37;13.07;;;10.85;;
39898;SDS011;25571;47.876;10.642;2023-04-09T03:15:02;12.27;;;10.00;;
39898;SDS011;25571;47.876;10.642;2023-04-09T03:17:28;13.45;;;11.15;;
39898;SDS011;25571;47.876;10.642;2023-04-09T03:19:56;12.93;;;10.25;;
39898;SDS011;25571;47.876;10.642;2023-04-09T03:22:22;13.57;;;11.18;;
39898;SDS011;25571;47.876;10.642;2023-04-09T03:24:47;14.23;;;11.02;;
39898;SDS011;25571;47.876;10.642;2023-04-09T03:27:13;15.10;;;11.55;;
39898;SDS011;25571;47.876;10.642;2023-04-09T03:29:38;13.57;;;11.73;;
39898;SDS011;25571;47.876;10.642;2023-04-09T03:32:04;16.40;;;11.98;;
39898;SDS011;25571;47.876;10.642;2023-04-09T03:34:30;13.85;;;10.80;;
39898;SDS011;25571;47.876;10.642;2023-04-09T03:36:55;12.07;;;10.27;;
39898;SDS011;25571;47.876;10.642;2023-04-09T03:39:21;13.50;;;10.48;;
39898;SDS011;25571;47.876;10.642;2023-04-09T03:41:46;13.57;;;11.52;;
39898;SDS011;25571;47.876;10.642;2023-04-09T03:44:12;13.40;;;10.52;;
39898;SDS011;25571;47.876;10.642;2023-04-09T03:46:38;14.48;;;11.50;;
39898;SDS011;25571;47.876;10.642;2023-04-09T03:49:03;13.82;;;11.38;;
39898;SDS011;25571;47.876;10.642;2023-04-09T03:51:29;14.10;;;11.15;;
39898;SDS011;25571;47.876;10.642;2023-04-09T03:53:55;14.93;;;11.13;;
39898;SDS011;25571;47.876;10.642;2023-04-09T03:56:21;14.57;;;11.68;;
39898;SDS011;25571;47.876;10.642;2023-04-09T03:58:47;14.70;;;11.73;;
39898;SDS011;25571;47.876;10.642;2023-04-09T04:01:13;15.10;;;12.52;;
39898;SDS011;25571;47.876;10.642;2023-04-09T04:03:39;19.08;;;13.45;;
39898;SDS011;25571;47.876;10.642;2023-04-09T04:06:05;16.80;;;13.57;;
39898;SDS011;25571;47.876;10.642;2023-04-09T04:08:30;17.00;;;13.63;;
39898;SDS011;25571;47.876;10.642;2023-04-09T04:11:01;17.15;;;14.30;;
39898;SDS011;25571;47.876;10.642;2023-04-09T04:13:27;18.42;;;13.23;;
39898;SDS011;25571;47.876;10.642;2023-04-09T04:15:53;17.15;;;12.80;;
39898;SDS011;25571;47.876;10.642;2023-04-09T04:18:18;14.65;;;11.90;;
39898;SDS011;25571;47.876;10.642;2023-04-09T04:20:44;14.02;;;11.77;;
39898;SDS011;25571;47.876;10.642;2023-04-09T04:23:10;15.35;;;12.23;;
39898;SDS011;25571;47.876;10.642;2023-04-09T04:25:35;15.30;;;11.85;;
39898;SDS011;25571;47.876;10.642;2023-04-09T04:28:01;16.33;;;13.20;;
39898;SDS011;25571;47.876;10.642;2023-04-09T04:30:26;15.70;;;12.75;;
39898;SDS011;25571;47.876;10.642;2023-04-09T04:32:52;12.93;;;10.60;;
39898;SDS011;25571;47.876;10.642;2023-04-09T04:35:18;13.70;;;11.23;;
39898;SDS011;25571;47.876;10.642;2023-04-09T04:37:48;15.02;;;11.07;;
39898;SDS011;25571;47.876;10.642;2023-04-09T04:40:15;15.30;;;12.00;;
39898;SDS011;25571;47.876;10.642;2023-04-09T04:42:41;15.30;;;11.88;;
39898;SDS011;25571;47.876;10.642;2023-04-09T04:45:06;16.75;;;12.95;;
39898;SDS011;25571;47.876;10.642;2023-04-09T04:47:32;16.00;;;11.82;;
39898;SDS011;25571;47.876;10.642;2023-04-09T04:49:58;16.58;;;12.07;;
39898;SDS011;25571;47.876;10.642;2023-04-09T04:52:24;14.73;;;11.45;;
39898;SDS011;25571;47.876;10.642;2023-04-09T04:54:49;17.77;;;12.75;;
39898;SDS011;25571;47.876;10.642;2023-04-09T04:57:15;15.45;;;12.23;;
39898;SDS011;25571;47.876;10.642;2023-04-09T04:59:40;18.10;;;13.38;;
39898;SDS011;25571;47.876;10.642;2023-04-09T05:02:06;15.55;;;12.30;;
39898;SDS011;25571;47.876;10.642;2023-04-09T05:04:32;19.20;;;14.15;;
39898;SDS011;25571;47.876;10.642;2023-04-09T05:06:58;18.55;;;14.02;;
39898;SDS011;25571;47.876;10.642;2023-04-09T05:09:23;19.95;;;15.43;;
39898;SDS011;25571;47.876;10.642;2023-04-09T05:11:49;19.40;;;14.55;;
39898;SDS011;25571;47.876;10.642;2023-04-09T05:14:15;20.75;;;15.68;;
39898;SDS011;25571;47.876;10.642;2023-04-09T05:16:41;18.73;;;14.50;;
39898;SDS011;25571;47.876;10.642;2023-04-09T05:19:06;17.50;;;14.07;;
39898;SDS011;25571;47.876;10.642;2023-04-09T05:21:32;16.60;;;12.93;;
39898;SDS011;25571;47.876;10.642;2023-04-09T05:23:58;17.10;;;12.88;;
39898;SDS011;25571;47.876;10.642;2023-04-09T05:26:23;16.80;;;12.90;;
39898;SDS011;25571;47.876;10.642;2023-04-09T05:28:49;17.55;;;13.80;;
39898;SDS011;25571;47.876;10.642;2023-04-09T05:31:16;16.45;;;12.57;;
39898;SDS011;25571;47.876;10.642;2023-04-09T05:33:41;16.20;;;12.75;;
39898;SDS011;25571;47.876;10.642;2023-04-09T05:36:07;16.23;;;12.40;;
39898;SDS011;25571;47.876;10.642;2023-04-09T05:38:33;16.48;;;12.90;;
39898;SDS011;25571;47.876;10.642;2023-04-09T05:40:59;18.48;;;13.20;;
39898;SDS011;25571;47.876;10.642;2023-04-09T05:43:24;17.13;;;12.63;;
39898;SDS011;25571;47.876;10.642;2023-04-09T05:45:50;15.82;;;13.15;;
39898;SDS011;25571;47.876;10.642;2023-04-09T05:48:16;16.65;;;12.65;;
39898;SDS011;25571;47.876;10.642;2023-04-09T05:50:47;16.77;;;12.93;;
39898;SDS011;25571;47.876;10.642;2023-04-09T05:53:14;17.88;;;13.00;;
39898;SDS011;25571;47.876;10.642;2023-04-09T05:55:40;15.73;;;12.13;;
39898;SDS011;25571;47.876;10.642;2023-04-09T05:58:06;15.93;;;12.52;;
39898;SDS011;25571;47.876;10.642;2023-04-09T06:00:31;16.85;;;12.80;;
39898;SDS011;25571;47.876;10.642;2023-04-09T06:02:57;16.02;;;12.57;;
39898;SDS011;25571;47.876;10.642;2023-04-09T06:05:22;16.13;;;12.70;;
39898;SDS011;25571;47.876;10.642;2023-04-09T06:07:48;17.23;;;13.38;;
39898;SDS011;25571;47.876;10.642;2023-04-09T06:10:13;17.48;;;13.43;;
39898;SDS011;25571;47.876;10.642;2023-04-09T06:12:39;17.05;;;13.75;;
39898;SDS011;25571;47.876;10.642;2023-04-09T06:15:05;16.65;;;13.02;;
39898;SDS011;25571;47.876;10.642;2023-04-09T06:17:31;50.25;;;31.27;;
39898;SDS011;25571;47.876;10.642;2023-04-09T06:19:57;46.92;;;34.05;;
39898;SDS011;25571;47.876;10.642;2023-04-09T06:22:22;25.58;;;19.20;;
39898;SDS011;25571;47.876;10.642;2023-04-09T06:24:48;16.13;;;12.68;;
39898;SDS011;25571;47.876;10.642;2023-04-09T06:27:13;25.00;;;18.10;;
39898;SDS011;25571;47.876;10.642;2023-04-09T06:29:39;18.40;;;14.13;;
39898;SDS011;25571;47.876;10.642;2023-04-09T06:32:05;14.85;;;12.07;;
39898;SDS011;25571;47.876;10.642;2023-04-09T06:34:31;17.02;;;12.45;;
39898;SDS011;25571;47.876;10.642;2023-04-09T06:36:56;14.82;;;11.35;;
39898;SDS011;25571;47.876;10.642;2023-04-09T06:39:22;15.35;;;12.13;;
39898;SDS011;25571;47.876;10.642;2023-04-09T06:41:47;15.27;;;11.82;;
39898;SDS011;25571;47.876;10.642;2023-04-09T06:44:13;14.18;;;12.13;;
39898;SDS011;25571;47.876;10.642;2023-04-09T06:46:38;14.63;;;11.88;;
39898;SDS011;25571;47.876;10.642;2023-04-09T06:49:04;13.20;;;10.52;;
39898;SDS011;25571;47.876;10.642;2023-04-09T06:51:30;12.43;;;10.35;;
39898;SDS011;25571;47.876;10.642;2023-04-09T06:53:56;12.20;;;9.90;;
39898;SDS011;25571;47.876;10.642;2023-04-09T06:56:21;11.75;;;9.77;;
39898;SDS011;25571;47.876;10.642;2023-04-09T06:58:47;12.57;;;10.07;;
39898;SDS011;25571;47.876;10.642;2023-04-09T07:01:12;10.73;;;8.43;;
39898;SDS011;25571;47.876;10.642;2023-04-09T07:03:38;10.55;;;9.38;;
39898;SDS011;25571;47.876;10.642;2023-04-09T07:06:04;13.68;;;11.07;;
39898;SDS011;25571;47.876;10.642;2023-04-09T07:08:30;10.55;;;9.00;;
39898;SDS011;25571;47.876;10.642;2023-04-09T07:10:55;11.35;;;9.45;;
39898;SDS011;25571;47.876;10.642;2023-04-09T07:13:21;10.52;;;9.40;;
39898;SDS011;25571;47.876;10.642;2023-04-09T07:15:47;11.10;;;10.02;;
39898;SDS011;25571;47.876;10.642;2023-04-09T07:18:12;11.70;;;10.23;;
39898;SDS011;25571;47.876;10.642;2023-04-09T07:20:38;10.63;;;9.13;;
39898;SDS011;25571;47.876;10.642;2023-04-09T07:23:03;10.30;;;8.90;;
39898;SDS011;25571;47.876;10.642;2023-04-09T07:25:29;11.10;;;9.68;;
39898;SDS011;25571;47.876;10.642;2023-04-09T07:27:55;10.38;;;9.27;;
39898;SDS011;25571;47.876;10.642;2023-04-09T07:30:21;12.60;;;10.43;;
39898;SDS011;25571;47.876;10.642;2023-04-09T07:32:47;10.18;;;8.80;;
39898;SDS011;25571;47.876;10.642;2023-04-09T07:35:12;10.07;;;8.50;;
39898;SDS011;25571;47.876;10.642;2023-04-09T07:37:38;8.80;;;7.78;;
39898;SDS011;25571;47.876;10.642;2023-04-09T07:40:04;8.43;;;7.10;;
39898;SDS011;25571;47.876;10.642;2023-04-09T07:42:30;7.40;;;6.70;;
39898;SDS011;25571;47.876;10.642;2023-04-09T07:44:56;7.40;;;6.65;;
39898;SDS011;25571;47.876;10.642;2023-04-09T07:47:22;7.18;;;6.45;;
39898;SDS011;25571;47.876;10.642;2023-04-09T07:49:48;7.90;;;7.10;;
39898;SDS011;25571;47.876;10.642;2023-04-09T07:52:14;8.10;;;7.10;;
39898;SDS011;25571;47.876;10.642;2023-04-09T07:54:40;6.32;;;5.75;;
39898;SDS011;25571;47.876;10.642;2023-04-09T07:57:05;6.20;;;5.60;;
39898;SDS011;25571;47.876;10.642;2023-04-09T07:59:33;7.25;;;6.55;;
39898;SDS011;25571;47.876;10.642;2023-04-09T08:01:58;6.82;;;6.22;;
39898;SDS011;25571;47.876;10.642;2023-04-09T08:04:24;6.70;;;6.10;;
39898;SDS011;25571;47.876;10.642;2023-04-09T08:06:51;6.85;;;6.15;;
39898;SDS011;25571;47.876;10.642;2023-04-09T08:09:17;6.63;;;5.65;;
39898;SDS011;25571;47.876;10.642;2023-04-09T08:11:47;7.15;;;6.45;;
39898;SDS011;25571;47.876;10.642;2023-04-09T08:14:13;6.22;;;5.63;;
39898;SDS011;25571;47.876;10.642;2023-04-09T08:16:41;5.00;;;4.60;;
39898;SDS011;25571;47.876;10.642;2023-04-09T08:19:07;5.80;;;5.22;;
39898;SDS011;25571;47.876;10.642;2023-04-09T08:21:37;4.97;;;4.47;;
39898;SDS011;25571;47.876;10.642;2023-04-09T08:24:06;4.25;;;3.90;;
39898;SDS011;25571;47.876;10.642;2023-04-09T08:26:33;4.15;;;3.75;;
39898;SDS011;25571;47.876;10.642;2023-04-09T08:28:58;4.03;;;3.72;;
39898;SDS011;25571;47.876;10.642;2023-04-09T08:31:25;3.53;;;3.22;;
39898;SDS011;25571;47.876;10.642;2023-04-09T08:33:51;4.70;;;4.30;;
39898;SDS011;25571;47.876;10.642;2023-04-09T08:36:17;3.30;;;3.03;;
39898;SDS011;25571;47.876;10.642;2023-04-09T08:38:43;3.95;;;3.65;;
39898;SDS011;25571;47.876;10.642;2023-04-09T08:41:21;4.00;;;3.70;;
39898;SDS011;25571;47.876;10.642;2023-04-09T08:43:49;3.95;;;3.65;;
39898;SDS011;25571;47.876;10.642;2023-04-09T08:46:16;3.50;;;3.20;;
39898;SDS011;25571;47.876;10.642;2023-04-09T08:48:43;3.38;;;3.17;;
39898;SDS011;25571;47.876;10.642;2023-04-09T08:51:13;4.60;;;4.30;;
39898;SDS011;25571;47.876;10.642;2023-04-09T08:53:57;3.90;;;3.60;;
39898;SDS011;25571;47.876;10.642;2023-04-09T08:56:23;3.70;;;3.40;;
39898;SDS011;25571;47.876;10.642;2023-04-09T08:58:53;3.60;;;3.30;;
39898;SDS011;25571;47.876;10.642;2023-04-09T09:01:26;2.78;;;2.58;;
39898;SDS011;25571;47.876;10.642;2023-04-09T09:06:26;2.85;;;2.65;;
39898;SDS011;25571;47.876;10.642;2023-04-09T09:09:01;3.35;;;3.10;;
39898;SDS011;25571;47.876;10.642;2023-04-09T09:11:28;3.40;;;3.20;;
39898;SDS011;25571;47.876;10.642;2023-04-09T09:14:13;3.10;;;2.90;;
39898;SDS011;25571;47.876;10.642;2023-04-09T09:16:40;3.20;;;3.00;;
39898;SDS011;25571;47.876;10.642;2023-04-09T09:19:08;2.92;;;2.72;;
39898;SDS011;25571;47.876;10.642;2023-04-09T09:22:00;2.95;;;2.75;;
39898;SDS011;25571;47.876;10.642;2023-04-09T09:24:30;3.05;;;2.85;;
39898;SDS011;25571;47.876;10.642;2023-04-09T09:26:57;3.42;;;3.15;;
39898;SDS011;25571;47.876;10.642;2023-04-09T09:29:23;2.97;;;2.78;;
39898;SDS011;25571;47.876;10.642;2023-04-09T09:31:50;3.00;;;2.80;;
39898;SDS011;25571;47.876;10.642;2023-04-09T09:34:17;3.03;;;2.83;;
39898;SDS011;25571;47.876;10.642;2023-04-09T09:36:44;2.80;;;2.60;;
39898;SDS011;25571;47.876;10.642;2023-04-09T09:39:11;3.55;;;3.25;;
39898;SDS011;25571;47.876;10.642;2023-04-09T09:41:38;3.55;;;3.30;;
39898;SDS011;25571;47.876;10.642;2023-04-09T09:44:06;4.30;;;3.90;;
39898;SDS011;25571;47.876;10.642;2023-04-09T09:46:36;3.75;;;3.45;;
39898;SDS011;25571;47.876;10.642;2023-04-09T09:49:06;3.63;;;3.33;;
39898;SDS011;25571;47.876;10.642;2023-04-09T09:51:34;3.90;;;3.50;;
39898;SDS011;25571;47.876;10.642;2023-04-09T09:56:30;4.20;;;3.80;;
39898;SDS011;25571;47.876;10.642;2023-04-09T09:59:06;4.10;;;3.80;;
39898;SDS011;25571;47.876;10.642;2023-04-09T10:01:40;4.47;;;3.72;;
39898;SDS011;25571;47.876;10.642;2023-04-09T10:04:07;3.65;;;3.35;;
39898;SDS011;25571;47.876;10.642;2023-04-09T10:06:37;4.45;;;3.58;;
39898;SDS011;25571;47.876;10.642;2023-04-09T10:09:07;4.07;;;3.67;;
39898;SDS011;25571;47.876;10.642;2023-04-09T10:11:35;3.92;;;3.55;;
39898;SDS011;25571;47.876;10.642;2023-04-09T10:14:02;3.53;;;3.22;;
39898;SDS011;25571;47.876;10.642;2023-04-09T10:16:29;4.35;;;3.95;;
39898;SDS011;25571;47.876;10.642;2023-04-09T10:18:56;6.10;;;4.82;;
39898;SDS011;25571;47.876;10.642;2023-04-09T10:21:33;4.70;;;4.20;;
39898;SDS011;25571;47.876;10.642;2023-04-09T10:26:40;5.72;;;4.82;;
39898;SDS011;25571;47.876;10.642;2023-04-09T10:29:09;4.68;;;3.90;;
39898;SDS011;25571;47.876;10.642;2023-04-09T10:32:12;4.20;;;3.80;;
39898;SDS011;25571;47.876;10.642;2023-04-09T10:34:38;3.95;;;3.55;;
39898;SDS011;25571;47.876;10.642;2023-04-09T10:37:09;4.50;;;4.03;;
39898;SDS011;25571;47.876;10.642;2023-04-09T10:39:39;4.35;;;3.95;;
39898;SDS011;25571;47.876;10.642;2023-04-09T10:45:06;5.20;;;4.38;;
39898;SDS011;25571;47.876;10.642;2023-04-09T10:47:35;5.35;;;4.13;;
39898;SDS011;25571;47.876;10.642;2023-04-09T10:50:20;4.18;;;3.78;;
39898;SDS011;25571;47.876;10.642;2023-04-09T10:52:52;7.22;;;4.95;;
39898;SDS011;25571;47.876;10.642;2023-04-09T10:55:36;4.63;;;4.15;;
39898;SDS011;25571;47.876;10.642;2023-04-09T10:58:09;4.80;;;4.28;;
39898;SDS011;25571;47.876;10.642;2023-04-09T11:00:37;5.07;;;4.25;;
39898;SDS011;25571;47.876;10.642;2023-04-09T11:06:07;4.20;;;3.60;;
39898;SDS011;25571;47.876;10.642;2023-04-09T11:08:34;4.47;;;3.70;;
39898;SDS011;25571;47.876;10.642;2023-04-09T11:11:02;3.85;;;3.13;;
39898;SDS011;25571;47.876;10.642;2023-04-09T11:13:28;3.53;;;3.17;;
39898;SDS011;25571;47.876;10.642;2023-04-09T11:15:55;3.45;;;3.13;;
39898;SDS011;25571;47.876;10.642;2023-04-09T11:18:26;4.38;;;3.50;;
39898;SDS011;25571;47.876;10.642;2023-04-09T11:20:58;3.50;;;3.20;;
39898;SDS011;25571;47.876;10.642;2023-04-09T11:23:25;4.78;;;3.50;;
39898;SDS011;25571;47.876;10.642;2023-04-09T11:25:51;5.10;;;3.30;;
39898;SDS011;25571;47.876;10.642;2023-04-09T11:28:17;4.50;;;3.75;;
39898;SDS011;25571;47.876;10.642;2023-04-09T11:30:44;3.30;;;3.00;;
39898;SDS011;25571;47.876;10.642;2023-04-09T11:33:13;3.90;;;3.50;;
39898;SDS011;25571;47.876;10.642;2023-04-09T11:35:39;3.35;;;3.05;;
39898;SDS011;25571;47.876;10.642;2023-04-09T11:38:05;3.50;;;2.97;;
39898;SDS011;25571;47.876;10.642;2023-04-09T11:40:32;2.92;;;2.50;;
39898;SDS011;25571;47.876;10.642;2023-04-09T11:42:58;3.40;;;3.10;;
39898;SDS011;25571;47.876;10.642;2023-04-09T11:45:25;3.45;;;2.85;;
39898;SDS011;25571;47.876;10.642;2023-04-09T11:47:52;3.25;;;2.72;;
39898;SDS011;25571;47.876;10.642;2023-04-09T11:50:18;3.30;;;3.00;;
39898;SDS011;25571;47.876;10.642;2023-04-09T11:52:44;3.85;;;3.10;;
39898;SDS011;25571;47.876;10.642;2023-04-09T11:55:11;3.55;;;2.90;;
39898;SDS011;25571;47.876;10.642;2023-04-09T11:57:46;3.13;;;2.70;;
39898;SDS011;25571;47.876;10.642;2023-04-09T12:00:12;3.08;;;2.33;;
39898;SDS011;25571;47.876;10.642;2023-04-09T12:02:43;2.55;;;2.35;;
39898;SDS011;25571;47.876;10.642;2023-04-09T12:05:20;3.28;;;2.80;;
39898;SDS011;25571;47.876;10.642;2023-04-09T12:07:47;3.08;;;2.50;;
39898;SDS011;25571;47.876;10.642;2023-04-09T12:10:13;3.22;;;2.53;;
39898;SDS011;25571;47.876;10.642;2023-04-09T12:12:42;3.17;;;2.88;;
39898;SDS011;25571;47.876;10.642;2023-04-09T12:17:48;3.22;;;2.92;;
39898;SDS011;25571;47.876;10.642;2023-04-09T12:20:25;3.85;;;3.30;;
39898;SDS011;25571;47.876;10.642;2023-04-09T12:22:50;4.35;;;3.47;;
39898;SDS011;25571;47.876;10.642;2023-04-09T12:25:16;3.95;;;3.40;;
39898;SDS011;25571;47.876;10.642;2023-04-09T12:27:42;4.03;;;3.25;;
39898;SDS011;25571;47.876;10.642;2023-04-09T12:30:07;3.80;;;3.20;;
39898;SDS011;25571;47.876;10.642;2023-04-09T12:32:35;4.95;;;3.42;;
39898;SDS011;25571;47.876;10.642;2023-04-09T12:35:00;3.55;;;3.17;;
39898;SDS011;25571;47.876;10.642;2023-04-09T12:37:26;3.60;;;3.20;;
39898;SDS011;25571;47.876;10.642;2023-04-09T12:39:52;3.00;;;2.60;;
39898;SDS011;25571;47.876;10.642;2023-04-09T12:42:18;3.58;;;3.15;;
39898;SDS011;25571;47.876;10.642;2023-04-09T12:44:44;3.97;;;3.33;;
39898;SDS011;25571;47.876;10.642;2023-04-09T12:47:09;4.03;;;3.63;;
39898;SDS011;25571;47.876;10.642;2023-04-09T12:49:35;4.55;;;3.92;;
39898;SDS011;25571;47.876;10.642;2023-04-09T12:52:01;3.40;;;2.70;;
39898;SDS011;25571;47.876;10.642;2023-04-09T12:54:26;4.25;;;3.85;;
39898;SDS011;25571;47.876;10.642;2023-04-09T12:56:52;4.35;;;3.88;;
39898;SDS011;25571;47.876;10.642;2023-04-09T12:59:17;4.35;;;3.90;;
39898;SDS011;25571;47.876;10.642;2023-04-09T13:01:43;5.35;;;4.80;;
39898;SDS011;25571;47.876;10.642;2023-04-09T13:04:09;4.47;;;4.07;;
39898;SDS011;25571;47.876;10.642;2023-04-09T13:06:34;5.18;;;4.68;;
39898;SDS011;25571;47.876;10.642;2023-04-09T13:09:00;4.88;;;4.35;;
39898;SDS011;25571;47.876;10.642;2023-04-09T13:11:26;5.57;;;5.03;;
39898;SDS011;25571;47.876;10.642;2023-04-09T13:13:52;5.18;;;4.22;;
39898;SDS011;25571;47.876;10.642;2023-04-09T13:16:17;5.88;;;4.70;;
39898;SDS011;25571;47.876;10.642;2023-04-09T13:18:43;5.55;;;4.18;;
39898;SDS011;25571;47.876;10.642;2023-04-09T13:21:09;5.35;;;4.53;;
39898;SDS011;25571;47.876;10.642;2023-04-09T13:23:35;4.93;;;4.05;;
39898;SDS011;25571;47.876;10.642;2023-04-09T13:26:00;4.22;;;3.83;;
39898;SDS011;25571;47.876;10.642;2023-04-09T13:28:26;4.20;;;3.72;;
39898;SDS011;25571;47.876;10.642;2023-04-09T13:30:51;4.95;;;4.22;;
39898;SDS011;25571;47.876;10.642;2023-04-09T13:33:17;5.10;;;4.20;;
39898;SDS011;25571;47.876;10.642;2023-04-09T13:35:42;5.07;;;4.32;;
39898;SDS011;25571;47.876;10.642;2023-04-09T13:38:08;5.03;;;4.00;;
39898;SDS011;25571;47.876;10.642;2023-04-09T13:40:34;5.40;;;4.70;;
39898;SDS011;25571;47.876;10.642;2023-04-09T13:42:59;5.70;;;4.43;;
39898;SDS011;25571;47.876;10.642;2023-04-09T13:45:25;5.15;;;4.65;;
39898;SDS011;25571;47.876;10.642;2023-04-09T13:47:50;4.93;;;4.20;;
39898;SDS011;25571;47.876;10.642;2023-04-09T13:50:16;4.18;;;3.53;;
39898;SDS011;25571;47.876;10.642;2023-04-09T13:52:42;3.80;;;3.35;;
39898;SDS011;25571;47.876;10.642;2023-04-09T13:55:08;4.10;;;3.60;;
39898;SDS011;25571;47.876;10.642;2023-04-09T13:57:33;4.43;;;4.03;;
39898;SDS011;25571;47.876;10.642;2023-04-09T13:59:59;4.70;;;4.18;;
39898;SDS011;25571;47.876;10.642;2023-04-09T14:02:28;5.90;;;4.55;;
39898;SDS011;25571;47.876;10.642;2023-04-09T14:04:54;4.32;;;3.92;;
39898;SDS011;25571;47.876;10.642;2023-04-09T14:07:20;4.82;;;3.97;;
39898;SDS011;25571;47.876;10.642;2023-04-09T14:09:46;4.07;;;3.58;;
39898;SDS011;25571;47.876;10.642;2023-04-09T14:12:14;4.77;;;4.00;;
39898;SDS011;25571;47.876;10.642;2023-04-09T14:14:40;5.43;;;4.07;;
39898;SDS011;25571;47.876;10.642;2023-04-09T14:17:05;5.35;;;4.57;;
39898;SDS011;25571;47.876;10.642;2023-04-09T14:19:31;5.10;;;4.25;;
39898;SDS011;25571;47.876;10.642;2023-04-09T14:21:57;4.85;;;4.03;;
39898;SDS011;25571;47.876;10.642;2023-04-09T14:24:22;5.15;;;4.65;;
39898;SDS011;25571;47.876;10.642;2023-04-09T14:26:48;5.03;;;4.20;;
39898;SDS011;25571;47.876;10.642;2023-04-09T14:29:17;5.15;;;4.28;;
39898;SDS011;25571;47.876;10.642;2023-04-09T14:31:42;4.68;;;3.80;;
39898;SDS011;25571;47.876;10.642;2023-04-09T14:34:11;5.23;;;4.10;;
39898;SDS011;25571;47.876;10.642;2023-04-09T14:36:36;5.03;;;4.13;;
39898;SDS011;25571;47.876;10.642;2023-04-09T14:39:02;5.93;;;4.82;;
39898;SDS011;25571;47.876;10.642;2023-04-09T14:41:27;4.97;;;3.92;;
39898;SDS011;25571;47.876;10.642;2023-04-09T14:43:53;5.10;;;4.03;;
39898;SDS011;25571;47.876;10.642;2023-04-09T14:46:19;4.40;;;3.92;;
39898;SDS011;25571;47.876;10.642;2023-04-09T14:48:46;3.90;;;3.47;;
39898;SDS011;25571;47.876;10.642;2023-04-09T14:51:11;5.60;;;4.18;;